Time;durP1;ratioP1;P1;durP2;ratioP2;P2;SDS_P1;SDS_P2;PMS_P1;PMS_P2;Temp;Humidity;BMP_temperature;BMP_pressure;BME280_temperature;BME280_humidity;BME280_pressure;Samples;Min_cycle;Max_cycle;Signal;HPM_P1;HPM_P2
2021/01/25 00:01:25;;;;;;;10.35;7.60;;;;;;;;;;5078464;28;20199;-73
2021/01/25 00:03:51;;;;;;;11.27;8.15;;;;;;;;;;5085460;28;20207;-70
2021/01/25 00:06:17;;;;;;;11.15;7.55;;;;;;;;;;5079710;28;20192;-75
2021/01/25 00:08:43;;;;;;;11.90;8.23;;;;;;;;;;5080916;28;20190;-76
2021/01/25 00:11:09;;;;;;;9.23;8.23;;;;;;;;;;5089824;28;20179;-73
2021/01/25 00:13:35;;;;;;;9.25;7.30;;;;;;;;;;5088770;28;20199;-76
2021/01/25 00:16:01;;;;;;;9.93;7.20;;;;;;;;;;5089358;28;20684;-71
2021/01/25 00:18:27;;;;;;;9.57;7.70;;;;;;;;;;5072615;28;20184;-71
2021/01/25 00:20:54;;;;;;;10.10;8.20;;;;;;;;;;5074235;28;20190;-74
2021/01/25 00:23:20;;;;;;;8.52;6.60;;;;;;;;;;5072543;28;20681;-72
2021/01/25 00:25:46;;;;;;;9.55;7.70;;;;;;;;;;5083237;28;20540;-73
2021/01/25 00:28:12;;;;;;;8.68;7.07;;;;;;;;;;5080606;28;20183;-70
2021/01/25 00:30:38;;;;;;;16.30;7.15;;;;;;;;;;5086524;28;20238;-76
2021/01/25 00:33:04;;;;;;;9.35;6.85;;;;;;;;;;5089010;28;20203;-72
2021/01/25 00:35:30;;;;;;;8.98;6.75;;;;;;;;;;5088495;28;20211;-75
2021/01/25 00:37:56;;;;;;;7.20;6.50;;;;;;;;;;5085702;28;20184;-72
2021/01/25 00:40:22;;;;;;;7.97;7.15;;;;;;;;;;5090238;28;20171;-72
2021/01/25 00:42:48;;;;;;;8.38;7.35;;;;;;;;;;5090078;28;20547;-72
2021/01/25 00:45:14;;;;;;;7.93;6.70;;;;;;;;;;5092779;28;20571;-74
2021/01/25 00:47:40;;;;;;;8.07;7.05;;;;;;;;;;5088866;28;20191;-73
2021/01/25 00:50:07;;;;;;;7.45;6.38;;;;;;;;;;5072726;28;20183;-72
2021/01/25 00:52:33;;;;;;;9.95;6.72;;;;;;;;;;5072370;28;20200;-74
2021/01/25 00:54:59;;;;;;;7.30;6.50;;;;;;;;;;5072119;28;20294;-74
2021/01/25 00:57:25;;;;;;;7.55;6.18;;;;;;;;;;5075382;28;20177;-72
2021/01/25 00:59:51;;;;;;;8.13;6.72;;;;;;;;;;5082783;28;20164;-77
2021/01/25 01:02:17;;;;;;;7.32;6.13;;;;;;;;;;5075143;28;20192;-74
2021/01/25 01:04:43;;;;;;;8.32;7.22;;;;;;;;;;5072099;28;20168;-71
2021/01/25 01:07:09;;;;;;;8.85;6.93;;;;;;;;;;5072436;28;20196;-73
2021/01/25 01:09:35;;;;;;;12.43;9.65;;;;;;;;;;5074163;28;20222;-72
2021/01/25 01:12:01;;;;;;;15.90;11.15;;;;;;;;;;5072295;28;20700;-73
2021/01/25 01:14:28;;;;;;;18.63;13.73;;;;;;;;;;5092370;28;20235;-72
2021/01/25 01:16:54;;;;;;;28.25;18.05;;;;;;;;;;5096343;28;20183;-75
2021/01/25 01:19:20;;;;;;;23.83;17.88;;;;;;;;;;5096013;28;20551;-73
2021/01/25 01:21:46;;;;;;;23.38;18.55;;;;;;;;;;5096243;28;20187;-72
2021/01/25 01:24:13;;;;;;;30.08;20.48;;;;;;;;;;5095778;28;20187;-75
2021/01/25 01:26:39;;;;;;;31.80;21.90;;;;;;;;;;5095909;28;20675;-74
2021/01/25 01:29:05;;;;;;;26.95;19.08;;;;;;;;;;5095903;28;20517;-75
2021/01/25 01:31:31;;;;;;;24.80;18.55;;;;;;;;;;5086301;28;20203;-74
2021/01/25 01:33:57;;;;;;;21.60;15.75;;;;;;;;;;5083064;28;20175;-73
2021/01/25 01:36:23;;;;;;;29.10;17.20;;;;;;;;;;5092149;28;20164;-74
2021/01/25 01:38:49;;;;;;;25.40;17.17;;;;;;;;;;5083788;28;20180;-75
2021/01/25 01:41:15;;;;;;;20.13;15.35;;;;;;;;;;5087446;28;20176;-74
2021/01/25 01:43:41;;;;;;;22.88;15.73;;;;;;;;;;5085885;28;20194;-75
2021/01/25 01:46:07;;;;;;;16.10;12.45;;;;;;;;;;5077108;28;20172;-73
2021/01/25 01:48:34;;;;;;;16.35;12.65;;;;;;;;;;5084790;28;20575;-73
2021/01/25 01:51:00;;;;;;;15.55;12.35;;;;;;;;;;5083459;28;20593;-74
2021/01/25 01:53:26;;;;;;;15.55;11.23;;;;;;;;;;5095366;28;20202;-76
2021/01/25 01:55:53;;;;;;;18.00;12.45;;;;;;;;;;5090397;28;20531;-72
2021/01/25 01:58:20;;;;;;;15.60;11.00;;;;;;;;;;5089182;28;20203;-75
2021/01/25 02:00:47;;;;;;;14.20;10.35;;;;;;;;;;5090370;28;20249;-75
2021/01/25 02:03:13;;;;;;;11.80;9.35;;;;;;;;;;5088419;28;20244;-74
2021/01/25 02:05:42;;;;;;;11.25;9.27;;;;;;;;;;5093944;28;20222;-74
2021/01/25 02:08:09;;;;;;;12.32;9.00;;;;;;;;;;5095572;28;20179;-74
2021/01/25 02:10:35;;;;;;;12.07;9.10;;;;;;;;;;5103316;28;20574;-75
2021/01/25 02:13:02;;;;;;;12.45;9.38;;;;;;;;;;5090683;28;20649;-75
2021/01/25 02:15:29;;;;;;;14.40;10.05;;;;;;;;;;5094153;28;20604;-73
2021/01/25 02:17:56;;;;;;;11.60;9.63;;;;;;;;;;5094986;28;20182;-73
2021/01/25 02:20:31;;;;;;;9.82;8.20;;;;;;;;;;5094711;28;20579;-73
2021/01/25 02:23:14;;;;;;;11.65;9.02;;;;;;;;;;5076577;28;20196;-73
2021/01/25 02:25:50;;;;;;;11.65;9.35;;;;;;;;;;5083434;28;20272;-73
2021/01/25 02:28:16;;;;;;;13.32;9.60;;;;;;;;;;5078502;28;20171;-75
2021/01/25 02:30:43;;;;;;;11.50;9.93;;;;;;;;;;5094823;28;20540;-74
2021/01/25 02:33:10;;;;;;;10.80;8.70;;;;;;;;;;5094672;28;20200;-75
2021/01/25 02:35:37;;;;;;;10.45;8.70;;;;;;;;;;5092071;28;20334;-75
2021/01/25 02:38:05;;;;;;;12.57;9.07;;;;;;;;;;5081977;28;20176;-73
2021/01/25 02:40:31;;;;;;;12.30;9.77;;;;;;;;;;5074352;28;20176;-75
2021/01/25 02:42:58;;;;;;;10.38;7.93;;;;;;;;;;5082773;28;20192;-74
2021/01/25 02:45:24;;;;;;;11.18;9.52;;;;;;;;;;5077434;28;20176;-74
2021/01/25 02:47:51;;;;;;;13.48;9.40;;;;;;;;;;5089155;28;20256;-75
2021/01/25 02:50:17;;;;;;;10.77;8.82;;;;;;;;;;5092303;28;20181;-74
2021/01/25 02:52:43;;;;;;;11.90;9.45;;;;;;;;;;5074095;28;20741;-73
2021/01/25 02:55:10;;;;;;;12.05;8.82;;;;;;;;;;5078207;28;20732;-75
2021/01/25 02:57:37;;;;;;;11.70;9.80;;;;;;;;;;5080152;28;20636;-73
2021/01/25 03:00:04;;;;;;;13.20;10.85;;;;;;;;;;5081607;28;20200;-73
2021/01/25 03:02:31;;;;;;;12.55;10.90;;;;;;;;;;5092167;28;20601;-72
2021/01/25 03:04:59;;;;;;;17.50;11.13;;;;;;;;;;5091377;28;20644;-74
2021/01/25 03:07:25;;;;;;;13.55;11.15;;;;;;;;;;5094760;28;20198;-72
2021/01/25 03:09:51;;;;;;;16.95;11.52;;;;;;;;;;5102024;28;20210;-72
2021/01/25 03:12:17;;;;;;;17.27;11.50;;;;;;;;;;5080312;28;20594;-71
2021/01/25 03:14:44;;;;;;;16.90;11.60;;;;;;;;;;5090949;28;20207;-74
2021/01/25 03:17:10;;;;;;;14.50;11.70;;;;;;;;;;5093878;28;20171;-73
2021/01/25 03:19:36;;;;;;;15.98;12.68;;;;;;;;;;5077213;28;20175;-73
2021/01/25 03:22:02;;;;;;;18.75;13.70;;;;;;;;;;5089676;28;20191;-74
2021/01/25 03:24:28;;;;;;;19.40;13.55;;;;;;;;;;5076620;28;20177;-75
2021/01/25 03:26:54;;;;;;;20.77;14.70;;;;;;;;;;5087868;28;20181;-72
2021/01/25 03:29:20;;;;;;;20.15;16.05;;;;;;;;;;5089938;28;20192;-75
2021/01/25 03:31:46;;;;;;;25.02;18.02;;;;;;;;;;5083989;28;20186;-75
2021/01/25 03:34:12;;;;;;;20.92;18.38;;;;;;;;;;5092927;28;20226;-75
2021/01/25 03:36:38;;;;;;;23.20;17.30;;;;;;;;;;5086791;28;20616;-74
2021/01/25 03:39:05;;;;;;;23.77;18.40;;;;;;;;;;5076778;28;20222;-71
2021/01/25 03:41:32;;;;;;;25.55;18.40;;;;;;;;;;5081440;28;20267;-73
2021/01/25 03:43:58;;;;;;;26.38;18.40;;;;;;;;;;5082658;28;20176;-72
2021/01/25 03:46:24;;;;;;;25.25;19.05;;;;;;;;;;5073187;28;20221;-73
2021/01/25 03:48:50;;;;;;;22.58;18.27;;;;;;;;;;5079573;28;20621;-74
2021/01/25 03:51:19;;;;;;;22.15;18.13;;;;;;;;;;5073497;28;20180;-74
2021/01/25 03:53:45;;;;;;;24.20;19.45;;;;;;;;;;5085091;28;20330;-72
2021/01/25 03:56:11;;;;;;;26.30;19.75;;;;;;;;;;5079250;28;20253;-76
2021/01/25 03:58:37;;;;;;;24.40;19.63;;;;;;;;;;5083738;28;20183;-73
2021/01/25 04:01:03;;;;;;;24.50;19.55;;;;;;;;;;5078261;28;20275;-73
2021/01/25 04:03:29;;;;;;;25.67;21.13;;;;;;;;;;5087871;28;20192;-72
2021/01/25 04:05:55;;;;;;;30.75;22.08;;;;;;;;;;5087305;28;20202;-75
2021/01/25 04:08:21;;;;;;;26.55;19.70;;;;;;;;;;5095091;28;20529;-74
2021/01/25 04:10:47;;;;;;;26.48;19.30;;;;;;;;;;5091057;28;20230;-74
2021/01/25 04:13:13;;;;;;;24.58;18.77;;;;;;;;;;5078915;28;20595;-72
2021/01/25 04:15:39;;;;;;;25.33;19.45;;;;;;;;;;5089827;28;20405;-71
2021/01/25 04:18:06;;;;;;;28.40;20.80;;;;;;;;;;5075406;28;20182;-74
2021/01/25 04:20:32;;;;;;;27.85;20.92;;;;;;;;;;5079160;28;20176;-72
2021/01/25 04:22:58;;;;;;;28.58;20.15;;;;;;;;;;5075358;28;20192;-75
2021/01/25 04:25:24;;;;;;;27.10;20.88;;;;;;;;;;5083896;28;20224;-74
2021/01/25 04:27:50;;;;;;;30.80;21.42;;;;;;;;;;5092785;28;20180;-74
2021/01/25 04:30:17;;;;;;;29.63;21.27;;;;;;;;;;5081021;28;20176;-73
2021/01/25 04:32:43;;;;;;;28.55;21.92;;;;;;;;;;5072548;28;20207;-75
2021/01/25 04:35:10;;;;;;;28.98;22.27;;;;;;;;;;5088584;28;20203;-75
2021/01/25 04:37:37;;;;;;;29.85;20.40;;;;;;;;;;5074589;28;20215;-74
2021/01/25 04:40:07;;;;;;;30.50;20.60;;;;;;;;;;5079308;28;20172;-74
2021/01/25 04:42:33;;;;;;;33.10;21.25;;;;;;;;;;5081857;28;20552;-75
2021/01/25 04:44:59;;;;;;;34.13;22.45;;;;;;;;;;5092698;28;20606;-76
2021/01/25 04:47:26;;;;;;;29.65;21.40;;;;;;;;;;5084732;28;20176;-73
2021/01/25 04:49:53;;;;;;;32.08;21.90;;;;;;;;;;5077768;28;20188;-74
2021/01/25 04:52:19;;;;;;;28.05;20.65;;;;;;;;;;5085311;28;20205;-72
2021/01/25 04:54:46;;;;;;;30.10;21.35;;;;;;;;;;5095967;28;20195;-76
2021/01/25 04:57:15;;;;;;;33.40;22.52;;;;;;;;;;5088621;28;20206;-76
2021/01/25 04:59:41;;;;;;;29.27;20.15;;;;;;;;;;5090131;28;20187;-72
2021/01/25 05:02:08;;;;;;;26.83;20.02;;;;;;;;;;5096085;28;20214;-74
2021/01/25 05:04:34;;;;;;;31.23;21.50;;;;;;;;;;5095334;28;20179;-72
2021/01/25 05:07:00;;;;;;;26.45;19.65;;;;;;;;;;5096033;28;20203;-74
2021/01/25 05:09:26;;;;;;;25.38;19.73;;;;;;;;;;5098320;28;20202;-76
2021/01/25 05:12:03;;;;;;;24.75;18.15;;;;;;;;;;5095923;28;20263;-74
2021/01/25 05:14:41;;;;;;;28.25;19.33;;;;;;;;;;5092762;28;20202;-72
2021/01/25 05:17:08;;;;;;;29.20;20.50;;;;;;;;;;5076155;28;20176;-73
2021/01/25 05:19:35;;;;;;;26.80;18.63;;;;;;;;;;5079479;28;20172;-73
2021/01/25 05:22:01;;;;;;;24.15;16.83;;;;;;;;;;5095439;28;20244;-74
2021/01/25 05:24:27;;;;;;;24.17;18.05;;;;;;;;;;5080494;28;20186;-74
2021/01/25 05:26:56;;;;;;;26.83;18.38;;;;;;;;;;5083904;28;20195;-76
2021/01/25 05:29:25;;;;;;;30.75;17.52;;;;;;;;;;5087794;28;20175;-75
2021/01/25 05:31:52;;;;;;;24.60;17.00;;;;;;;;;;5093880;28;20199;-72
2021/01/25 05:34:19;;;;;;;23.23;18.15;;;;;;;;;;5089833;28;20561;-75
2021/01/25 05:36:45;;;;;;;23.33;17.27;;;;;;;;;;5076006;28;20621;-75
2021/01/25 05:39:14;;;;;;;26.20;18.15;;;;;;;;;;5086191;28;20572;-75
2021/01/25 05:41:40;;;;;;;25.73;17.98;;;;;;;;;;5094578;28;20175;-73
2021/01/25 05:44:16;;;;;;;24.30;17.17;;;;;;;;;;5095148;28;20197;-74
2021/01/25 05:46:42;;;;;;;27.35;19.55;;;;;;;;;;5095443;28;20217;-75
2021/01/25 05:49:08;;;;;;;25.60;17.80;;;;;;;;;;5095086;28;20183;-74
2021/01/25 05:51:34;;;;;;;27.77;18.52;;;;;;;;;;5081024;28;20178;-72
2021/01/25 05:54:04;;;;;;;28.40;18.45;;;;;;;;;;5095130;28;20266;-73
2021/01/25 05:56:30;;;;;;;27.23;18.80;;;;;;;;;;5088433;28;20173;-73
2021/01/25 05:58:57;;;;;;;28.73;18.95;;;;;;;;;;5075377;28;20184;-73
2021/01/25 06:01:23;;;;;;;29.13;20.45;;;;;;;;;;5089590;28;20214;-72
2021/01/25 06:03:50;;;;;;;26.13;18.70;;;;;;;;;;5094694;28;20195;-73
2021/01/25 06:06:30;;;;;;;27.02;18.45;;;;;;;;;;5081395;28;20187;-74
2021/01/25 06:09:03;;;;;;;27.73;17.70;;;;;;;;;;5094612;28;20183;-74
2021/01/25 06:11:31;;;;;;;26.15;18.13;;;;;;;;;;5080682;28;20252;-73
2021/01/25 06:13:59;;;;;;;24.63;18.10;;;;;;;;;;5091918;28;20179;-72
2021/01/25 06:16:26;;;;;;;30.10;19.90;;;;;;;;;;5095340;28;20171;-74
2021/01/25 06:18:54;;;;;;;27.75;18.63;;;;;;;;;;5095662;28;20171;-71
2021/01/25 06:21:23;;;;;;;25.48;17.60;;;;;;;;;;5095442;28;20178;-73
2021/01/25 06:23:49;;;;;;;25.92;18.85;;;;;;;;;;5090656;28;20542;-71
2021/01/25 06:26:15;;;;;;;27.00;18.30;;;;;;;;;;5091414;28;20262;-73
2021/01/25 06:28:42;;;;;;;28.65;18.45;;;;;;;;;;5088740;28;20185;-76
2021/01/25 06:31:09;;;;;;;28.65;18.42;;;;;;;;;;5094642;28;20180;-72
2021/01/25 06:33:38;;;;;;;24.05;18.00;;;;;;;;;;5080523;28;20625;-70
2021/01/25 06:36:06;;;;;;;29.67;18.90;;;;;;;;;;5082634;28;20219;-72
2021/01/25 06:38:34;;;;;;;34.35;20.20;;;;;;;;;;5076123;28;20183;-75
2021/01/25 06:41:07;;;;;;;29.27;19.85;;;;;;;;;;5088985;28;20175;-75
2021/01/25 06:43:34;;;;;;;30.90;19.90;;;;;;;;;;5083105;28;20209;-75
2021/01/25 06:46:02;;;;;;;31.58;19.85;;;;;;;;;;5074647;28;20568;-73
2021/01/25 06:48:28;;;;;;;30.73;19.85;;;;;;;;;;5088826;28;20175;-76
2021/01/25 06:50:54;;;;;;;27.27;19.55;;;;;;;;;;5094242;28;20178;-73
2021/01/25 06:53:26;;;;;;;29.55;19.05;;;;;;;;;;5074525;28;20208;-76
2021/01/25 06:55:58;;;;;;;29.15;19.40;;;;;;;;;;5077078;28;20217;-75
2021/01/25 06:58:25;;;;;;;27.85;19.55;;;;;;;;;;5076594;28;20206;-75
2021/01/25 07:00:53;;;;;;;28.30;18.77;;;;;;;;;;5085975;28;20571;-75
2021/01/25 07:03:22;;;;;;;32.60;19.13;;;;;;;;;;5085439;28;20195;-76
2021/01/25 07:05:51;;;;;;;33.72;19.92;;;;;;;;;;5078345;28;20233;-74
2021/01/25 07:08:20;;;;;;;32.83;20.60;;;;;;;;;;5089964;28;20178;-72
2021/01/25 07:11:02;;;;;;;31.60;20.35;;;;;;;;;;5093859;28;20171;-74
2021/01/25 07:13:33;;;;;;;32.92;21.02;;;;;;;;;;5086892;28;20210;-74
2021/01/25 07:15:59;;;;;;;29.60;20.88;;;;;;;;;;5093012;28;20217;-73
2021/01/25 07:18:27;;;;;;;34.63;21.20;;;;;;;;;;5093690;28;20525;-73
2021/01/25 07:20:54;;;;;;;31.23;20.13;;;;;;;;;;5073740;28;20655;-72
2021/01/25 07:23:21;;;;;;;30.20;20.25;;;;;;;;;;5073356;28;20283;-75
2021/01/25 07:25:54;;;;;;;30.15;19.75;;;;;;;;;;5079270;28;20175;-72
2021/01/25 07:28:20;;;;;;;32.35;21.52;;;;;;;;;;5082750;28;20183;-73
2021/01/25 07:30:46;;;;;;;30.52;18.98;;;;;;;;;;5093893;28;20171;-72
2021/01/25 07:33:12;;;;;;;37.00;21.30;;;;;;;;;;5080121;28;20200;-74
2021/01/25 07:35:39;;;;;;;34.53;21.35;;;;;;;;;;5085555;28;20230;-71
2021/01/25 07:38:05;;;;;;;31.27;20.60;;;;;;;;;;5073361;28;20176;-74
2021/01/25 07:40:31;;;;;;;32.53;20.83;;;;;;;;;;5073372;28;20555;-74
2021/01/25 07:42:57;;;;;;;42.80;22.42;;;;;;;;;;5075984;28;20649;-75
2021/01/25 07:45:23;;;;;;;39.92;21.55;;;;;;;;;;5073100;28;20590;-72
2021/01/25 07:47:50;;;;;;;43.00;24.23;;;;;;;;;;5072831;28;20241;-74
2021/01/25 07:50:16;;;;;;;47.00;24.10;;;;;;;;;;5079743;28;20183;-72
2021/01/25 07:52:42;;;;;;;38.83;24.98;;;;;;;;;;5079527;28;20195;-73
2021/01/25 07:55:13;;;;;;;39.20;23.90;;;;;;;;;;5084392;28;20553;-73
2021/01/25 07:57:39;;;;;;;45.10;23.48;;;;;;;;;;5075383;28;20212;-76
2021/01/25 08:00:21;;;;;;;45.17;22.77;;;;;;;;;;5080242;28;20179;-74
2021/01/25 08:02:56;;;;;;;35.33;20.65;;;;;;;;;;5075268;28;20191;-73
2021/01/25 08:05:23;;;;;;;41.00;21.55;;;;;;;;;;5074830;28;20880;-73
2021/01/25 08:07:49;;;;;;;36.80;21.15;;;;;;;;;;5076967;28;20195;-77
2021/01/25 08:10:16;;;;;;;33.38;18.95;;;;;;;;;;5082903;28;20536;-75
2021/01/25 08:12:43;;;;;;;47.85;21.50;;;;;;;;;;5087341;28;20231;-73
2021/01/25 08:15:11;;;;;;;40.25;21.70;;;;;;;;;;5087315;28;20210;-75
2021/01/25 08:17:57;;;;;;;50.35;19.77;;;;;;;;;;5082361;28;20259;-74
2021/01/25 08:20:24;;;;;;;58.60;21.63;;;;;;;;;;5089054;28;20196;-74
2021/01/25 08:22:59;;;;;;;42.92;19.58;;;;;;;;;;5089486;28;20210;-75
2021/01/25 08:25:27;;;;;;;47.30;18.42;;;;;;;;;;5091353;28;20273;-72
2021/01/25 08:28:05;;;;;;;38.40;19.23;;;;;;;;;;5092371;28;20892;-74
2021/01/25 08:30:49;;;;;;;34.40;18.77;;;;;;;;;;5079748;28;20592;-71
2021/01/25 08:33:28;;;;;;;32.83;18.42;;;;;;;;;;5078069;28;20199;-71
2021/01/25 08:35:56;;;;;;;32.28;20.20;;;;;;;;;;5074890;28;20230;-73
2021/01/25 08:38:51;;;;;;;38.60;19.67;;;;;;;;;;5089007;28;20186;-75
2021/01/25 08:41:28;;;;;;;33.38;19.08;;;;;;;;;;5083645;28;20195;-74
2021/01/25 08:43:59;;;;;;;45.92;20.58;;;;;;;;;;5092738;28;20190;-72
2021/01/25 08:46:30;;;;;;;31.98;17.77;;;;;;;;;;5089325;28;20172;-74
2021/01/25 08:49:07;;;;;;;33.92;18.00;;;;;;;;;;5086190;28;20244;-74
2021/01/25 08:51:34;;;;;;;42.15;17.75;;;;;;;;;;5084895;28;20225;-74
2021/01/25 08:54:05;;;;;;;32.08;18.35;;;;;;;;;;5092486;28;20206;-73
2021/01/25 08:56:36;;;;;;;35.90;17.05;;;;;;;;;;5085927;28;20188;-72
2021/01/25 08:59:16;;;;;;;30.10;16.30;;;;;;;;;;5072505;28;20176;-73
2021/01/25 09:01:44;;;;;;;35.60;17.23;;;;;;;;;;5082050;28;20183;-74
2021/01/25 09:04:10;;;;;;;27.05;16.95;;;;;;;;;;5092370;28;20179;-74
2021/01/25 09:06:48;;;;;;;31.23;17.42;;;;;;;;;;5082272;28;20198;-74
2021/01/25 09:09:14;;;;;;;36.55;15.30;;;;;;;;;;5083042;28;20526;-72
2021/01/25 09:11:40;;;;;;;27.75;17.55;;;;;;;;;;5083283;28;20190;-75
2021/01/25 09:14:06;;;;;;;32.90;18.63;;;;;;;;;;5083062;28;20256;-73
2021/01/25 09:16:32;;;;;;;33.00;18.75;;;;;;;;;;5080733;28;20581;-73
2021/01/25 09:18:58;;;;;;;34.17;19.13;;;;;;;;;;5078799;28;20283;-71
2021/01/25 09:21:24;;;;;;;39.30;19.58;;;;;;;;;;5083703;28;20175;-76
2021/01/25 09:23:50;;;;;;;35.33;17.90;;;;;;;;;;5091285;28;20199;-72
2021/01/25 09:26:16;;;;;;;37.70;20.20;;;;;;;;;;5092516;28;20172;-74
2021/01/25 09:28:42;;;;;;;38.72;18.30;;;;;;;;;;5094017;28;20195;-75
2021/01/25 09:31:09;;;;;;;33.40;18.85;;;;;;;;;;5094683;28;20241;-75
2021/01/25 09:33:35;;;;;;;38.90;18.90;;;;;;;;;;5087068;28;20233;-72
2021/01/25 09:36:01;;;;;;;38.58;19.50;;;;;;;;;;5086209;28;20253;-74
2021/01/25 09:38:27;;;;;;;37.88;20.88;;;;;;;;;;5088136;28;20548;-73
2021/01/25 09:40:53;;;;;;;34.70;18.13;;;;;;;;;;5086802;28;20560;-74
2021/01/25 09:43:19;;;;;;;36.70;19.85;;;;;;;;;;5091364;28;20851;-73
2021/01/25 09:45:46;;;;;;;31.58;17.48;;;;;;;;;;5091096;28;20179;-75
2021/01/25 09:48:12;;;;;;;39.78;20.92;;;;;;;;;;5078716;28;20268;-75
2021/01/25 09:50:38;;;;;;;33.83;18.00;;;;;;;;;;5090903;28;20199;-75
2021/01/25 09:53:04;;;;;;;36.38;20.27;;;;;;;;;;5089729;28;20215;-73
2021/01/25 09:55:30;;;;;;;39.75;17.92;;;;;;;;;;5073638;28;20204;-72
2021/01/25 09:57:56;;;;;;;42.47;21.85;;;;;;;;;;5083244;28;20176;-72
2021/01/25 10:00:22;;;;;;;37.13;20.35;;;;;;;;;;5073962;28;20179;-75
2021/01/25 10:02:49;;;;;;;38.20;19.83;;;;;;;;;;5083519;28;20199;-73
2021/01/25 10:05:15;;;;;;;36.03;19.85;;;;;;;;;;5085705;28;20618;-73
2021/01/25 10:07:41;;;;;;;41.33;22.90;;;;;;;;;;5071189;28;20224;-73
2021/01/25 10:10:12;;;;;;;35.88;21.73;;;;;;;;;;5087960;28;20298;-71
2021/01/25 10:12:38;;;;;;;41.85;23.92;;;;;;;;;;5091474;28;20195;-74
2021/01/25 10:15:06;;;;;;;38.67;22.55;;;;;;;;;;5090618;28;20844;-72
2021/01/25 10:17:32;;;;;;;36.17;22.13;;;;;;;;;;5077944;28;20181;-73
2021/01/25 10:19:58;;;;;;;34.42;21.17;;;;;;;;;;5078523;28;20176;-75
2021/01/25 10:22:24;;;;;;;31.30;20.08;;;;;;;;;;5077296;28;20326;-76
2021/01/25 10:24:50;;;;;;;30.33;19.60;;;;;;;;;;5090965;28;20529;-74
2021/01/25 10:27:16;;;;;;;31.63;19.85;;;;;;;;;;5077602;28;20540;-72
2021/01/25 10:29:42;;;;;;;31.38;20.30;;;;;;;;;;5090003;28;20186;-75
2021/01/25 10:32:08;;;;;;;30.13;19.67;;;;;;;;;;5091214;28;20199;-73
2021/01/25 10:34:34;;;;;;;30.13;19.42;;;;;;;;;;5085261;28;20211;-73
2021/01/25 10:37:00;;;;;;;34.10;20.73;;;;;;;;;;5090851;28;20717;-75
2021/01/25 10:39:27;;;;;;;32.47;20.95;;;;;;;;;;5085353;28;20180;-70
2021/01/25 10:41:53;;;;;;;26.65;19.48;;;;;;;;;;5091081;28;20202;-76
2021/01/25 10:44:19;;;;;;;31.02;19.52;;;;;;;;;;5084826;28;20184;-72
2021/01/25 10:46:46;;;;;;;36.65;21.75;;;;;;;;;;5083931;28;20167;-73
2021/01/25 10:49:12;;;;;;;29.52;19.27;;;;;;;;;;5088852;28;20608;-73
2021/01/25 10:51:38;;;;;;;29.27;20.38;;;;;;;;;;5087836;28;20190;-75
2021/01/25 10:54:04;;;;;;;26.88;18.83;;;;;;;;;;5070500;28;20222;-72
2021/01/25 10:56:30;;;;;;;28.30;18.73;;;;;;;;;;5077558;28;20237;-72
2021/01/25 10:58:56;;;;;;;28.55;19.83;;;;;;;;;;5075995;28;20176;-74
2021/01/25 11:01:22;;;;;;;26.13;18.63;;;;;;;;;;5076965;28;20179;-72
2021/01/25 11:03:48;;;;;;;27.33;18.88;;;;;;;;;;5075479;28;20196;-75
2021/01/25 11:06:15;;;;;;;28.23;18.23;;;;;;;;;;5074823;28;20206;-73
2021/01/25 11:08:48;;;;;;;27.13;17.80;;;;;;;;;;5085911;27;20549;-72
2021/01/25 11:11:14;;;;;;;29.00;18.77;;;;;;;;;;5086720;28;20225;-74
2021/01/25 11:13:42;;;;;;;28.75;17.55;;;;;;;;;;5086059;28;20876;-72
2021/01/25 11:16:08;;;;;;;26.00;18.05;;;;;;;;;;5086815;28;20266;-76
2021/01/25 11:18:34;;;;;;;26.23;16.98;;;;;;;;;;5086578;28;20175;-72
2021/01/25 11:21:00;;;;;;;27.05;17.90;;;;;;;;;;5086594;28;20544;-73
2021/01/25 11:23:27;;;;;;;26.67;18.60;;;;;;;;;;5085994;28;20253;-73
2021/01/25 11:25:54;;;;;;;26.85;18.23;;;;;;;;;;5086281;28;20179;-72
2021/01/25 11:28:20;;;;;;;22.38;16.23;;;;;;;;;;5085516;28;20199;-73
2021/01/25 11:30:46;;;;;;;23.40;15.70;;;;;;;;;;5088671;28;20179;-73
2021/01/25 11:33:13;;;;;;;24.33;16.92;;;;;;;;;;5087437;28;20236;-71
2021/01/25 11:35:39;;;;;;;24.10;15.75;;;;;;;;;;5086040;28;20254;-73
2021/01/25 11:38:05;;;;;;;21.52;15.30;;;;;;;;;;5086516;28;20198;-72
2021/01/25 11:40:31;;;;;;;19.08;13.60;;;;;;;;;;5086192;28;20209;-74
2021/01/25 11:42:57;;;;;;;17.70;12.60;;;;;;;;;;5085668;28;20195;-75
2021/01/25 11:45:23;;;;;;;20.45;15.20;;;;;;;;;;5082843;28;20188;-75
2021/01/25 11:47:49;;;;;;;21.10;15.18;;;;;;;;;;5083185;28;20245;-74
2021/01/25 11:50:15;;;;;;;22.73;16.10;;;;;;;;;;5086240;28;20176;-73
2021/01/25 11:52:41;;;;;;;25.70;18.25;;;;;;;;;;5084066;28;20196;-74
2021/01/25 11:55:08;;;;;;;20.65;15.93;;;;;;;;;;5085905;28;20176;-72
2021/01/25 11:57:35;;;;;;;22.52;14.43;;;;;;;;;;5086067;28;20184;-76
2021/01/25 12:00:01;;;;;;;19.75;14.18;;;;;;;;;;5085943;28;20210;-75
2021/01/25 12:02:27;;;;;;;14.65;12.00;;;;;;;;;;5084423;28;20597;-72
2021/01/25 12:04:53;;;;;;;15.70;12.80;;;;;;;;;;5077685;28;20260;-74
2021/01/25 12:07:19;;;;;;;20.80;14.60;;;;;;;;;;5087368;28;20208;-72
2021/01/25 12:09:46;;;;;;;20.92;15.50;;;;;;;;;;5084857;28;20187;-77
2021/01/25 12:12:12;;;;;;;19.52;15.10;;;;;;;;;;5085553;28;20265;-75
2021/01/25 12:14:38;;;;;;;20.63;15.57;;;;;;;;;;5086830;28;20258;-74
2021/01/25 12:17:04;;;;;;;20.33;15.80;;;;;;;;;;5085333;28;20561;-73
2021/01/25 12:19:30;;;;;;;23.15;16.58;;;;;;;;;;5075337;28;20216;-74
2021/01/25 12:21:57;;;;;;;23.63;15.95;;;;;;;;;;5071635;28;20199;-73
2021/01/25 12:24:23;;;;;;;22.83;16.50;;;;;;;;;;5076817;28;20190;-74
2021/01/25 12:26:50;;;;;;;21.02;16.55;;;;;;;;;;5076516;28;20207;-75
2021/01/25 12:29:16;;;;;;;22.38;15.60;;;;;;;;;;5071216;28;20168;-74
2021/01/25 12:31:42;;;;;;;18.95;13.52;;;;;;;;;;5069523;28;20537;-76
2021/01/25 12:34:08;;;;;;;23.60;14.88;;;;;;;;;;5071487;28;20204;-75
2021/01/25 12:36:34;;;;;;;22.75;16.63;;;;;;;;;;5076676;28;20188;-75
2021/01/25 12:39:01;;;;;;;24.60;16.70;;;;;;;;;;5077082;28;20180;-75
2021/01/25 12:41:27;;;;;;;21.38;15.60;;;;;;;;;;5065094;28;20177;-73
2021/01/25 12:43:53;;;;;;;25.50;15.95;;;;;;;;;;5062686;28;20200;-76
2021/01/25 12:46:20;;;;;;;25.40;16.48;;;;;;;;;;5073440;28;20184;-75
2021/01/25 12:48:46;;;;;;;24.75;17.75;;;;;;;;;;5066722;28;20239;-73
2021/01/25 12:51:12;;;;;;;26.48;18.65;;;;;;;;;;5069871;28;20547;-73
2021/01/25 12:53:38;;;;;;;23.65;16.90;;;;;;;;;;5061561;28;20200;-75
2021/01/25 12:56:04;;;;;;;23.60;17.52;;;;;;;;;;5071181;28;20607;-72
2021/01/25 12:58:30;;;;;;;23.60;17.13;;;;;;;;;;5071037;28;20199;-74
2021/01/25 13:00:56;;;;;;;23.15;16.67;;;;;;;;;;5071681;28;20184;-75
2021/01/25 13:03:22;;;;;;;24.50;17.58;;;;;;;;;;5072756;28;20200;-77
2021/01/25 13:05:48;;;;;;;24.67;17.15;;;;;;;;;;5071151;28;20184;-74
2021/01/25 13:08:14;;;;;;;22.50;15.93;;;;;;;;;;5070058;28;20204;-72
2021/01/25 13:10:41;;;;;;;26.45;16.48;;;;;;;;;;5071772;28;20195;-77
2021/01/25 13:13:07;;;;;;;22.00;16.27;;;;;;;;;;5071144;28;20207;-73
2021/01/25 13:15:36;;;;;;;22.27;15.30;;;;;;;;;;5070747;28;20191;-70
2021/01/25 13:18:02;;;;;;;24.55;16.35;;;;;;;;;;5071182;28;20184;-76
2021/01/25 13:20:29;;;;;;;23.85;15.63;;;;;;;;;;5070847;28;20200;-73
2021/01/25 13:22:55;;;;;;;26.25;18.77;;;;;;;;;;5070605;28;20215;-76
2021/01/25 13:25:21;;;;;;;24.70;17.63;;;;;;;;;;5074105;28;20184;-71
2021/01/25 13:27:47;;;;;;;23.50;17.05;;;;;;;;;;5068537;28;20309;-76
2021/01/25 13:30:14;;;;;;;24.63;17.45;;;;;;;;;;5069696;28;20604;-72
2021/01/25 13:32:40;;;;;;;23.48;16.38;;;;;;;;;;5070504;28;20581;-74
2021/01/25 13:35:07;;;;;;;24.80;16.92;;;;;;;;;;5069570;28;20187;-73
2021/01/25 13:37:33;;;;;;;23.27;14.35;;;;;;;;;;5067608;28;20223;-73
2021/01/25 13:39:59;;;;;;;20.00;14.95;;;;;;;;;;5070279;28;20180;-74
2021/01/25 13:42:26;;;;;;;20.17;15.18;;;;;;;;;;5070408;28;20199;-77
2021/01/25 13:44:52;;;;;;;22.85;15.13;;;;;;;;;;5069832;28;20222;-75
2021/01/25 13:47:18;;;;;;;17.15;13.60;;;;;;;;;;5070444;28;20192;-76
2021/01/25 13:49:44;;;;;;;18.25;15.25;;;;;;;;;;5070122;28;20184;-75
2021/01/25 13:52:11;;;;;;;19.38;14.93;;;;;;;;;;5070044;28;20192;-75
2021/01/25 13:54:38;;;;;;;20.52;15.80;;;;;;;;;;5069868;28;20732;-76
2021/01/25 13:57:06;;;;;;;18.95;14.90;;;;;;;;;;5070025;28;20179;-76
2021/01/25 13:59:32;;;;;;;18.42;14.07;;;;;;;;;;5069605;28;20199;-73
2021/01/25 14:01:58;;;;;;;21.88;16.17;;;;;;;;;;5070032;28;20204;-74
2021/01/25 14:04:24;;;;;;;20.80;15.30;;;;;;;;;;5069268;28;20184;-73
2021/01/25 14:06:50;;;;;;;21.50;16.33;;;;;;;;;;5069828;28;20212;-76
2021/01/25 14:09:18;;;;;;;21.50;15.77;;;;;;;;;;5069754;28;20180;-73
2021/01/25 14:11:45;;;;;;;22.30;16.45;;;;;;;;;;5070592;28;20592;-74
2021/01/25 14:14:11;;;;;;;22.27;16.48;;;;;;;;;;5067893;28;20175;-72
2021/01/25 14:16:37;;;;;;;21.70;15.70;;;;;;;;;;5069253;28;20318;-72
2021/01/25 14:19:03;;;;;;;18.88;15.80;;;;;;;;;;5068393;28;20187;-74